createdAt,value
2024-01-24T00:00:15.141Z,67.61
2024-01-24T00:03:02.144Z,67.56
2024-01-24T00:05:28.934Z,67.65
2024-01-24T00:07:55.643Z,67.64
2024-01-24T00:10:23.755Z,67.74
2024-01-24T00:12:50.424Z,68.05
2024-01-24T00:15:17.143Z,68.18
2024-01-24T00:17:43.760Z,67.96
2024-01-24T00:20:13.079Z,68.09
2024-01-24T00:22:39.605Z,67.59
2024-01-24T00:25:06.727Z,67.34
2024-01-24T00:27:33.363Z,67.07
2024-01-24T00:29:59.934Z,67.06
2024-01-24T00:32:26.660Z,67.12
2024-01-24T00:34:53.297Z,67.02
2024-01-24T00:37:20.116Z,67.06
2024-01-24T00:39:48.115Z,66.95
2024-01-24T00:42:14.815Z,67.38
2024-01-24T00:44:43.074Z,67.62
2024-01-24T00:47:09.674Z,67.83
2024-01-24T00:49:36.236Z,67.70
2024-01-24T00:52:04.402Z,67.59
2024-01-24T00:54:31.055Z,67.22
2024-01-24T00:56:57.608Z,67.12
2024-01-24T00:59:24.117Z,66.94
2024-01-24T01:01:50.669Z,66.95
2024-01-24T01:04:17.256Z,67.08
2024-01-24T01:06:44.025Z,67.21
2024-01-24T01:09:11.420Z,67.53
2024-01-24T01:11:39.151Z,67.69
2024-01-24T01:14:05.986Z,67.73
2024-01-24T01:16:32.708Z,67.47
2024-01-24T01:18:59.470Z,67.34
2024-01-24T01:21:26.065Z,67.23
2024-01-24T01:23:52.585Z,67.07
2024-01-24T01:26:19.623Z,67.00
2024-01-24T01:28:46.305Z,67.19
2024-01-24T01:31:12.827Z,67.44
2024-01-24T01:33:39.496Z,67.64
2024-01-24T01:36:14.306Z,67.76
2024-01-24T01:38:49.427Z,68.12
2024-01-24T01:41:17.544Z,68.22
2024-01-24T01:43:44.690Z,67.93
2024-01-24T01:46:16.494Z,67.81
2024-01-24T01:48:43.484Z,67.49
2024-01-24T01:51:10.794Z,67.38
2024-01-24T01:53:39.229Z,67.31
2024-01-24T01:56:09.727Z,67.31
2024-01-24T01:58:37.966Z,67.24
2024-01-24T02:01:08.179Z,67.59
2024-01-24T02:03:35.283Z,67.63
2024-01-24T02:06:02.448Z,67.66
2024-01-24T02:08:32.239Z,67.66
2024-01-24T02:10:58.798Z,67.49
2024-01-24T02:13:32.128Z,67.33
2024-01-24T02:16:04.185Z,67.10
2024-01-24T02:18:31.467Z,67.10
2024-01-24T02:20:58.553Z,67.00
2024-01-24T02:23:27.071Z,67.01
2024-01-24T02:25:54.191Z,66.92
2024-01-24T02:28:20.819Z,66.95
2024-01-24T02:30:47.339Z,67.31
2024-01-24T02:33:14.401Z,67.50
2024-01-24T02:35:41.011Z,67.65
2024-01-24T02:38:07.649Z,67.60
2024-01-24T02:40:34.331Z,67.41
2024-01-24T02:43:00.994Z,67.15
2024-01-24T02:45:27.712Z,67.12
2024-01-24T02:47:54.395Z,67.44
2024-01-24T02:50:21.143Z,67.15
2024-01-24T02:52:48.069Z,67.30
2024-01-24T02:55:15.974Z,67.66
2024-01-24T02:57:45.857Z,67.73
2024-01-24T03:00:16.320Z,67.61
2024-01-24T03:02:42.994Z,67.37
2024-01-24T03:05:09.611Z,67.00
2024-01-24T03:07:37.300Z,66.55
2024-01-24T03:10:04.693Z,66.32
2024-01-24T03:12:31.358Z,66.13
2024-01-24T03:14:58.133Z,66.14
2024-01-24T03:17:24.721Z,66.01
2024-01-24T03:19:51.714Z,66.02
2024-01-24T03:22:19.024Z,65.99
2024-01-24T03:24:45.750Z,66.15
2024-01-24T03:27:12.433Z,66.21
2024-01-24T03:29:41.523Z,65.94
2024-01-24T03:32:08.014Z,65.79
2024-01-24T03:34:35.136Z,65.69
2024-01-24T03:37:01.774Z,65.82
2024-01-24T03:39:28.829Z,65.95
2024-01-24T03:41:55.411Z,65.75
2024-01-24T03:44:22.079Z,65.96
2024-01-24T03:46:48.635Z,66.33
2024-01-24T03:49:15.972Z,66.45
2024-01-24T03:51:43.633Z,66.41
2024-01-24T03:54:10.180Z,66.22
2024-01-24T03:56:36.839Z,66.13
2024-01-24T03:59:03.391Z,66.11
2024-01-24T04:01:30.194Z,66.17
2024-01-24T04:03:56.891Z,66.23
2024-01-24T04:06:23.656Z,66.41
2024-01-24T04:08:50.322Z,66.40
2024-01-24T04:11:16.871Z,66.52
2024-01-24T04:13:43.638Z,66.43
2024-01-24T04:16:10.479Z,66.45
2024-01-24T04:18:38.005Z,66.32
2024-01-24T04:21:04.940Z,66.35
2024-01-24T04:23:31.666Z,66.53
2024-01-24T04:25:58.143Z,66.57
2024-01-24T04:28:24.914Z,67.05
2024-01-24T04:30:51.524Z,67.48
2024-01-24T04:33:18.351Z,67.82
2024-01-24T04:35:45.042Z,68.22
2024-01-24T04:38:11.640Z,68.34
2024-01-24T04:40:38.232Z,68.72
2024-01-24T04:43:04.875Z,68.42
2024-01-24T04:45:31.470Z,68.70
2024-01-24T04:47:58.448Z,68.77
2024-01-24T04:50:25.265Z,68.80
2024-01-24T04:52:51.948Z,69.04
2024-01-24T04:55:18.877Z,69.61
2024-01-24T04:57:45.501Z,70.21
2024-01-24T05:00:12.658Z,70.49
2024-01-24T05:02:39.927Z,70.79
2024-01-24T05:05:07.478Z,71.21
2024-01-24T05:07:35.010Z,71.51
2024-01-24T05:10:04.053Z,71.62
2024-01-24T05:12:31.554Z,72.08
2024-01-24T05:14:58.209Z,72.56
2024-01-24T05:17:25.003Z,72.81
2024-01-24T05:19:51.766Z,73.20
2024-01-24T05:22:18.776Z,73.40
2024-01-24T05:24:46.420Z,73.74
2024-01-24T05:27:14.042Z,73.72
2024-01-24T05:29:41.597Z,73.93
2024-01-24T05:32:08.093Z,74.22
2024-01-24T05:34:34.869Z,74.40
2024-01-24T05:37:01.528Z,74.63
2024-01-24T05:39:28.161Z,74.83
2024-01-24T05:41:54.676Z,74.81
2024-01-24T05:44:21.786Z,74.97
2024-01-24T05:46:48.439Z,74.78
2024-01-24T05:49:15.633Z,74.86
2024-01-24T05:51:43.055Z,74.91
2024-01-24T05:54:09.619Z,74.85
2024-01-24T05:56:38.881Z,75.28
2024-01-24T05:59:05.440Z,75.57
2024-01-24T06:01:32.205Z,75.51
2024-01-24T06:03:59.060Z,75.49
2024-01-24T06:06:25.879Z,75.39
2024-01-24T06:08:53.080Z,75.31
2024-01-24T06:11:19.697Z,75.15
2024-01-24T06:13:46.377Z,75.03
2024-01-24T06:16:12.919Z,74.97
2024-01-24T06:18:39.546Z,75.38
2024-01-24T06:21:08.307Z,75.18
2024-01-24T06:23:34.871Z,75.28
2024-01-24T06:26:02.796Z,75.31
2024-01-24T06:28:29.380Z,75.25
2024-01-24T06:30:56.373Z,74.97
2024-01-24T06:33:23.147Z,74.88
2024-01-24T06:35:49.808Z,74.51
2024-01-24T06:38:16.465Z,74.30
2024-01-24T06:40:43.026Z,74.40
2024-01-24T06:43:11.785Z,74.53
2024-01-24T06:45:38.566Z,74.85
2024-01-24T06:48:08.270Z,74.79
2024-01-24T06:50:36.949Z,74.73
2024-01-24T06:53:04.666Z,74.48
2024-01-24T06:55:31.645Z,74.10
2024-01-24T06:57:58.350Z,74.10
2024-01-24T07:00:25.154Z,73.93
2024-01-24T07:02:51.833Z,73.38
2024-01-24T07:05:18.519Z,73.41
2024-01-24T07:07:45.328Z,73.38
2024-01-24T07:10:13.057Z,73.36
2024-01-24T07:12:45.738Z,73.17
2024-01-24T07:15:13.316Z,72.88
2024-01-24T07:17:40.321Z,72.50
2024-01-24T07:20:07.771Z,72.21
2024-01-24T07:22:34.252Z,72.11
2024-01-24T07:25:01.965Z,72.19
2024-01-24T07:27:30.021Z,72.27
2024-01-24T07:29:57.554Z,72.42
2024-01-24T07:32:24.173Z,72.91
2024-01-24T07:34:50.826Z,73.13
2024-01-24T07:37:17.600Z,73.02
2024-01-24T07:40:03.004Z,73.12
2024-01-24T07:42:30.243Z,73.07
2024-01-24T07:44:56.877Z,73.20
2024-01-24T07:47:24.620Z,73.37
2024-01-24T07:49:52.779Z,73.38
2024-01-24T07:52:28.681Z,73.32
2024-01-24T07:55:04.131Z,73.25
2024-01-24T07:57:30.815Z,72.94
2024-01-24T07:59:57.801Z,72.85
2024-01-24T08:02:24.581Z,72.76
2024-01-24T08:04:51.354Z,72.80
2024-01-24T08:07:19.513Z,72.82
2024-01-24T08:09:46.493Z,72.74
2024-01-24T08:12:13.228Z,72.60
2024-01-24T08:14:40.785Z,72.45
2024-01-24T08:17:11.394Z,72.14
2024-01-24T08:19:39.171Z,71.96
2024-01-24T08:22:06.285Z,71.98
2024-01-24T08:24:32.957Z,72.22
2024-01-24T08:26:59.671Z,71.94
2024-01-24T08:29:32.892Z,71.95
2024-01-24T08:32:04.840Z,71.65
2024-01-24T08:34:31.518Z,71.17
2024-01-24T08:36:58.136Z,70.84
2024-01-24T08:39:24.761Z,70.78
2024-01-24T08:41:51.362Z,70.57
2024-01-24T08:44:18.807Z,70.45
2024-01-24T08:46:45.301Z,70.31
2024-01-24T08:49:13.488Z,70.12
2024-01-24T08:51:40.102Z,69.55
2024-01-24T08:54:07.504Z,69.28
2024-01-24T08:56:34.734Z,69.28
2024-01-24T08:59:01.373Z,69.14
2024-01-24T09:01:31.258Z,68.89
2024-01-24T09:04:00.317Z,68.94
2024-01-24T09:06:27.036Z,68.95
2024-01-24T09:08:54.294Z,68.83
2024-01-24T09:11:21.732Z,68.33
2024-01-24T09:13:49.617Z,68.15
2024-01-24T09:16:18.488Z,67.63
2024-01-24T09:18:45.367Z,67.86
2024-01-24T09:21:12.189Z,68.07
2024-01-24T09:23:38.826Z,68.81
2024-01-24T09:26:06.789Z,68.86
2024-01-24T09:28:33.410Z,69.14
2024-01-24T09:31:00.150Z,69.06
2024-01-24T09:33:27.189Z,69.26
2024-01-24T09:35:53.947Z,69.55
2024-01-24T09:38:20.597Z,69.78
2024-01-24T09:40:47.332Z,69.90
2024-01-24T09:43:15.260Z,69.99
2024-01-24T09:45:45.424Z,69.90
2024-01-24T10:01:44.812Z,68.53
2024-01-24T10:04:16.646Z,68.80
2024-01-24T10:06:48.257Z,69.09
2024-01-24T10:09:16.972Z,69.42
2024-01-24T10:11:46.251Z,69.53
2024-01-24T10:14:21.038Z,69.28
2024-01-24T10:16:52.200Z,68.77
2024-01-24T10:19:26.101Z,68.48
2024-01-24T10:21:54.666Z,68.27
2024-01-24T10:24:23.176Z,68.02
2024-01-24T10:26:53.188Z,68.05
2024-01-24T10:29:21.411Z,68.23
2024-01-24T10:31:57.570Z,68.21
2024-01-24T10:34:43.781Z,68.06
2024-01-24T10:37:12.410Z,67.92
2024-01-24T10:39:41.156Z,67.86
2024-01-24T10:42:16.036Z,68.02
2024-01-24T10:44:45.919Z,68.01
2024-01-24T10:47:15.645Z,68.31
2024-01-24T10:49:45.347Z,68.25
2024-01-24T10:52:14.569Z,68.45
2024-01-24T10:54:43.180Z,68.23
2024-01-24T10:57:13.960Z,68.00
2024-01-24T10:59:45.370Z,67.14
2024-01-24T11:02:13.676Z,66.19
2024-01-24T11:04:42.725Z,65.18
2024-01-24T11:07:16.918Z,64.72
2024-01-24T11:09:55.216Z,64.38
2024-01-24T11:12:23.822Z,65.05
2024-01-24T11:14:53.813Z,66.29
2024-01-24T11:17:22.675Z,66.01
2024-01-24T11:19:50.870Z,66.22
2024-01-24T11:22:30.116Z,67.21
2024-01-24T11:25:00.631Z,68.27
2024-01-24T11:27:39.534Z,68.81
2024-01-24T11:30:27.936Z,69.56
2024-01-24T11:32:59.541Z,70.51
2024-01-24T11:35:28.856Z,72.00
2024-01-24T11:38:08.350Z,72.90
2024-01-24T11:40:49.183Z,73.37
2024-01-24T11:43:46.846Z,73.42
2024-01-24T11:46:15.369Z,73.39
2024-01-24T11:48:43.595Z,73.36
2024-01-24T11:51:14.408Z,73.70
2024-01-24T11:53:42.683Z,74.12
2024-01-24T11:56:17.502Z,73.85
2024-01-24T11:58:45.517Z,73.71
2024-01-24T12:01:14.114Z,73.54
2024-01-24T12:03:50.629Z,72.90
2024-01-24T12:06:20.344Z,72.78
2024-01-24T12:08:50.520Z,72.75
2024-01-24T12:11:19.940Z,72.56
2024-01-24T12:13:48.778Z,72.13
2024-01-24T12:16:16.894Z,71.85
2024-01-24T12:18:45.231Z,71.84
2024-01-24T12:21:13.794Z,71.61
2024-01-24T12:23:42.013Z,71.10
2024-01-24T12:26:10.709Z,70.83
2024-01-24T12:28:39.061Z,70.47
2024-01-24T12:31:07.637Z,70.30
2024-01-24T12:33:37.282Z,70.10
2024-01-24T12:36:06.714Z,69.58
2024-01-24T12:38:36.612Z,69.35
2024-01-24T12:41:05.403Z,68.50
2024-01-24T12:43:33.716Z,67.99
2024-01-24T12:46:12.511Z,68.09
2024-01-24T12:48:40.725Z,68.21
2024-01-24T12:51:09.491Z,67.35
2024-01-24T12:53:37.632Z,66.68
2024-01-24T12:56:06.394Z,65.99
2024-01-24T12:58:34.609Z,65.87
2024-01-24T13:01:03.009Z,65.83
2024-01-24T13:03:31.453Z,65.88
2024-01-24T13:06:00.380Z,66.05
2024-01-24T13:08:28.672Z,65.31
2024-01-24T13:10:57.436Z,64.98
2024-01-24T13:13:25.728Z,64.88
2024-01-24T13:15:55.082Z,64.70
2024-01-24T13:18:24.270Z,64.73
2024-01-24T13:20:52.446Z,64.08
2024-01-24T13:23:20.392Z,64.08
2024-01-24T13:25:48.566Z,63.97
2024-01-24T13:28:16.589Z,63.63
2024-01-24T13:30:45.373Z,63.64
2024-01-24T13:33:13.679Z,63.28
2024-01-24T13:35:42.048Z,63.10
2024-01-24T13:38:10.549Z,63.12
2024-01-24T13:40:39.494Z,63.26
2024-01-24T13:43:07.993Z,63.23
2024-01-24T13:45:39.683Z,63.45
2024-01-24T13:48:10.117Z,62.85
2024-01-24T13:50:39.119Z,62.24
2024-01-24T13:53:07.666Z,61.81
2024-01-24T13:55:35.756Z,61.99
2024-01-24T13:58:04.589Z,61.77
2024-01-24T14:00:33.154Z,61.70
2024-01-24T14:03:01.753Z,61.18
2024-01-24T14:05:30.135Z,61.44
2024-01-24T14:07:58.466Z,61.38
2024-01-24T14:10:26.609Z,61.30
2024-01-24T14:12:54.737Z,60.85
2024-01-24T14:15:32.742Z,60.73
2024-01-24T14:18:03.871Z,60.35
2024-01-24T14:20:32.102Z,59.95
2024-01-24T14:23:00.011Z,59.55
2024-01-24T14:25:28.361Z,58.60
2024-01-24T14:27:57.135Z,58.47
2024-01-24T14:30:26.135Z,58.03
2024-01-24T14:32:54.191Z,57.51
2024-01-24T14:35:24.299Z,57.68
2024-01-24T14:37:52.521Z,57.29
2024-01-24T14:40:20.907Z,57.29
2024-01-24T14:42:49.092Z,57.63
2024-01-24T14:45:17.128Z,56.52
2024-01-24T14:47:45.322Z,56.68
2024-01-24T14:50:13.831Z,57.23
2024-01-24T14:52:42.080Z,56.89
2024-01-24T14:55:10.616Z,56.70
2024-01-24T14:57:39.364Z,56.23
2024-01-24T15:00:11.499Z,56.14
2024-01-24T15:02:40.000Z,56.79
2024-01-24T15:05:09.802Z,58.04
2024-01-24T15:07:38.791Z,59.51
2024-01-24T15:10:09.364Z,60.63
2024-01-24T15:12:38.251Z,61.32
2024-01-24T15:15:07.001Z,61.91
2024-01-24T15:17:36.018Z,62.36
2024-01-24T15:20:05.228Z,62.53
2024-01-24T15:22:34.273Z,62.64
2024-01-24T15:25:04.751Z,62.69
2024-01-24T15:27:33.376Z,62.73
2024-01-24T15:30:01.742Z,63.01
2024-01-24T15:32:31.137Z,63.03
2024-01-24T15:34:59.680Z,62.37
2024-01-24T15:37:28.265Z,61.87
2024-01-24T15:39:57.386Z,61.59
2024-01-24T15:42:27.710Z,61.43
2024-01-24T15:44:55.832Z,61.69
2024-01-24T15:47:25.135Z,61.70
2024-01-24T15:49:53.323Z,61.99
2024-01-24T15:52:21.765Z,62.24
2024-01-24T15:54:50.648Z,62.56
2024-01-24T15:57:18.779Z,62.41
2024-01-24T15:59:46.920Z,61.97
2024-01-24T16:02:16.705Z,61.48
2024-01-24T16:04:45.403Z,60.86
2024-01-24T16:07:15.655Z,60.63
2024-01-24T16:09:44.067Z,60.35
2024-01-24T16:12:13.271Z,60.36
2024-01-24T16:14:41.794Z,60.37
2024-01-24T16:17:11.640Z,60.47
2024-01-24T16:19:41.059Z,60.49
2024-01-24T16:22:10.721Z,60.56
2024-01-24T16:24:39.004Z,60.52
2024-01-24T16:27:07.155Z,60.63
2024-01-24T16:29:35.254Z,60.57
2024-01-24T16:32:03.240Z,60.37
2024-01-24T16:34:31.361Z,60.22
2024-01-24T16:36:59.798Z,60.25
2024-01-24T16:39:27.918Z,60.37
2024-01-24T16:41:55.855Z,60.41
2024-01-24T16:44:23.840Z,60.41
2024-01-24T16:46:51.821Z,60.49
2024-01-24T16:49:19.898Z,60.38
2024-01-24T16:51:48.105Z,60.40
2024-01-24T16:54:16.242Z,60.11
2024-01-24T16:56:44.294Z,59.57
2024-01-24T16:59:12.980Z,59.71
2024-01-24T17:01:40.986Z,59.60
2024-01-24T17:04:09.295Z,59.08
2024-01-24T17:06:39.905Z,59.30
2024-01-24T17:09:08.710Z,59.05
2024-01-24T17:11:36.694Z,59.18
2024-01-24T17:14:04.644Z,59.07
2024-01-24T17:16:32.623Z,59.24
2024-01-24T17:19:00.829Z,59.10
2024-01-24T17:21:28.806Z,58.81
2024-01-24T17:23:56.694Z,58.69
2024-01-24T17:26:24.570Z,58.68
2024-01-24T17:28:54.424Z,58.76
2024-01-24T17:31:23.226Z,58.58
2024-01-24T17:33:51.680Z,58.58
2024-01-24T17:36:19.662Z,58.67
2024-01-24T17:38:47.722Z,58.87
2024-01-24T17:41:16.075Z,58.69
2024-01-24T17:43:44.111Z,58.75
2024-01-24T17:46:12.315Z,58.49
2024-01-24T17:48:40.622Z,58.70
2024-01-24T17:51:08.608Z,58.76
2024-01-24T17:53:36.958Z,58.93
2024-01-24T17:56:05.391Z,58.90
2024-01-24T17:58:37.205Z,58.76
2024-01-24T18:01:06.031Z,58.66
2024-01-24T18:03:36.084Z,58.64
2024-01-24T18:06:04.386Z,58.58
2024-01-24T18:08:32.462Z,58.39
2024-01-24T18:11:00.538Z,58.71
2024-01-24T18:13:29.128Z,58.80
2024-01-24T18:15:57.144Z,58.82
2024-01-24T18:18:27.402Z,58.70
2024-01-24T18:20:55.733Z,58.95
2024-01-24T18:23:23.797Z,59.24
2024-01-24T18:25:51.775Z,59.55
2024-01-24T18:28:19.835Z,59.69
2024-01-24T18:30:47.759Z,59.88
2024-01-24T18:33:16.490Z,59.76
2024-01-24T18:35:44.804Z,59.68
2024-01-24T18:38:12.937Z,59.78
2024-01-24T18:40:41.132Z,60.09
2024-01-24T18:43:10.416Z,60.22
2024-01-24T18:45:39.207Z,60.33
2024-01-24T18:48:10.942Z,60.55
2024-01-24T18:50:43.100Z,60.97
2024-01-24T18:53:11.761Z,61.37
2024-01-24T18:55:39.961Z,61.20
2024-01-24T18:58:08.503Z,61.69
2024-01-24T19:00:36.933Z,61.82
2024-01-24T19:03:05.361Z,61.91
2024-01-24T19:05:37.601Z,62.19
2024-01-24T19:08:09.466Z,62.72
2024-01-24T19:10:39.167Z,63.23
2024-01-24T19:13:08.470Z,63.58
2024-01-24T19:15:36.711Z,63.47
2024-01-24T19:18:11.078Z,63.61
2024-01-24T19:20:42.698Z,63.62
2024-01-24T19:23:10.929Z,63.65
2024-01-24T19:25:39.064Z,63.82
2024-01-24T19:28:07.337Z,64.13
2024-01-24T19:30:35.506Z,63.97
2024-01-24T19:33:03.754Z,63.80
2024-01-24T19:35:33.069Z,63.88
2024-01-24T19:38:02.682Z,63.64
2024-01-24T19:40:30.994Z,63.55
2024-01-24T19:42:59.020Z,63.37
2024-01-24T19:45:29.338Z,63.36
2024-01-24T19:47:57.330Z,63.08
2024-01-24T19:50:25.329Z,62.95
2024-01-24T19:52:55.415Z,62.91
2024-01-24T19:55:25.041Z,63.13
2024-01-24T19:57:53.114Z,63.48
2024-01-24T20:00:21.230Z,63.59
2024-01-24T20:02:49.837Z,63.88
2024-01-24T20:05:18.725Z,64.67
2024-01-24T20:07:47.334Z,64.51
2024-01-24T20:10:15.656Z,64.74
2024-01-24T20:12:43.774Z,65.42
2024-01-24T20:15:12.083Z,66.09
2024-01-24T20:17:46.208Z,66.98
2024-01-24T20:20:15.969Z,66.81
2024-01-24T20:22:44.558Z,66.73
2024-01-24T20:25:12.727Z,66.85
2024-01-24T20:27:40.867Z,66.67
2024-01-24T20:30:09.133Z,66.52
2024-01-24T20:32:43.008Z,66.35
2024-01-24T20:35:17.219Z,66.10
2024-01-24T20:37:45.216Z,65.65
2024-01-24T20:40:13.920Z,65.26
2024-01-24T20:42:42.489Z,65.45
2024-01-24T20:45:11.068Z,65.71
2024-01-24T20:47:39.226Z,65.99
2024-01-24T20:50:08.035Z,66.20
2024-01-24T20:52:36.482Z,66.44
2024-01-24T20:55:05.165Z,66.80
2024-01-24T20:57:34.528Z,66.96
2024-01-24T21:00:03.779Z,67.04
2024-01-24T21:02:31.940Z,67.26
2024-01-24T21:04:59.908Z,67.06
2024-01-24T21:07:28.004Z,66.62
2024-01-24T21:09:56.352Z,66.25
2024-01-24T21:12:24.325Z,66.06
2024-01-24T21:14:52.705Z,65.62
2024-01-24T21:17:21.315Z,65.26
2024-01-24T21:19:49.671Z,65.25
2024-01-24T21:22:18.954Z,64.53
2024-01-24T21:24:47.028Z,64.26
2024-01-24T21:27:14.939Z,63.63
2024-01-24T21:29:45.383Z,63.34
2024-01-24T21:32:14.445Z,63.27
2024-01-24T21:34:42.667Z,63.25
2024-01-24T21:37:10.745Z,63.44
2024-01-24T21:39:38.795Z,63.79
2024-01-24T21:42:07.394Z,63.49
2024-01-24T21:44:36.334Z,63.10
2024-01-24T21:47:04.819Z,62.79
2024-01-24T21:49:32.969Z,62.75
2024-01-24T21:52:01.196Z,62.67
2024-01-24T21:54:29.213Z,62.55
2024-01-24T21:56:57.586Z,62.67
2024-01-24T21:59:25.579Z,62.58
2024-01-24T22:01:53.573Z,62.63
2024-01-24T22:04:21.792Z,62.23
2024-01-24T22:06:50.260Z,62.17
2024-01-24T22:09:18.340Z,61.67
2024-01-24T22:11:46.614Z,61.90
2024-01-24T22:14:14.530Z,61.46
2024-01-24T22:16:42.470Z,61.10
2024-01-24T22:19:10.490Z,60.79
2024-01-24T22:21:44.644Z,60.76
2024-01-24T22:24:12.700Z,60.82
2024-01-24T22:26:41.272Z,61.12
2024-01-24T22:29:10.570Z,61.41
2024-01-24T22:31:38.851Z,61.35
2024-01-24T22:34:07.130Z,61.50
2024-01-24T22:36:35.323Z,61.47
2024-01-24T22:39:03.606Z,61.75
2024-01-24T22:41:32.247Z,61.55
2024-01-24T22:44:00.360Z,61.83
2024-01-24T22:46:28.414Z,62.31
2024-01-24T22:48:57.995Z,62.78
2024-01-24T22:51:26.099Z,62.95
2024-01-24T22:53:55.823Z,63.28
2024-01-24T22:56:24.013Z,63.34
2024-01-24T22:58:51.964Z,63.41
2024-01-24T23:01:20.309Z,63.55
2024-01-24T23:03:48.642Z,63.78
2024-01-24T23:06:16.672Z,64.20
2024-01-24T23:08:44.928Z,64.44
2024-01-24T23:11:13.666Z,64.39
2024-01-24T23:13:41.850Z,64.48
2024-01-24T23:16:09.901Z,64.44
2024-01-24T23:18:38.083Z,64.60
2024-01-24T23:21:06.291Z,64.74
2024-01-24T23:23:34.277Z,64.80
2024-01-24T23:26:02.240Z,64.69
2024-01-24T23:28:30.717Z,64.52
2024-01-24T23:30:58.692Z,64.45
2024-01-24T23:33:29.377Z,64.72
2024-01-24T23:35:57.489Z,64.91
2024-01-24T23:38:25.501Z,65.16
2024-01-24T23:40:53.371Z,65.18
2024-01-24T23:43:21.372Z,65.24
2024-01-24T23:45:49.414Z,65.25
2024-01-24T23:48:17.669Z,65.44
2024-01-24T23:50:45.791Z,65.77
2024-01-24T23:53:13.816Z,66.13
2024-01-24T23:55:41.671Z,66.12
2024-01-24T23:58:09.665Z,66.06
